Flight Sim Network - KFLD Airport Info

    KFLD (Fond du Lac County Airport)  Login to use Map Selector
   

  RUNWAY INFORMATION    |    Airport Elevation : 808ft    |    LAT : 43.7711982727  /  LON : -88.4884033203
Runway Number 09 / 27 Runway Width 75' Runway Length 3602'
Lighted Runway Yes Runway StatusOpen Runway Surface Asphalt
Runway Number 18 / 36 Runway Width 100' Runway Length 5941'
Lighted Runway Yes Runway StatusOpen Runway Surface Asphalt
  CLOSE ALTERNATE AIRPORTS
ICAODistanceAirport NameLongest RWRW SurfaceMAP
96WI10NMVette/Blust Seaplane Base10000FTWater
KOSH13NMWittman Regional Airport8002FTConcrete
WI0715NMWaupun Airport3400FTAsphalt
8D119NMNew Holstein Mun3600FTAsphalt
WI4822NMEdinger Field3400FTDirt
9WN122NMCourtney Plummer Airport3403FTAsphalt
KUNU23NMDodge County Airport5060FTAsphalt
1WI525NMBeaver Dam Lake Seaplane Base10000FTWater
KHXF26NMHartford Municipal Airport3001FTAsphalt
KETB26NMWest Bend Municipal Airport4494FTAsphalt
  AIRPORT WEATHER
73°F | 23°C
Temperature
76%
Humidity
29" | 1015mb
Pressure
10sm
Visibility
VFR
Flight Rules
FEW @ 1700ft
Initial Clouds
FAIR
Conditions
Wind Info
7/23/24 16:53Z
Updated

KFLD 231653Z AUTO 26006KT 10SM FEW017 BKN040 OVC070 23/19 A2999 RMK AO2 SLP151 T02330189
  AIRPORT CHARTS
  AIRPORT FREQUENCIES
NameFrequency
CLEARANCE122.500
UNICOM123.050
MULTICOM123.050
FLD (RWY 36)108.300

Powered by Virtual Airlines Manager